logo
Search for airport 
image banner adimage banner adimage banner ad
image banner ad

EDLW - Dortmund

Located in Dortmund, Germany

ICAO - EDLW, IATA - DTM

Data provided by Airmate  

General information

Coordinates: N51°31'6" E7°36'44"
Elevation is 425 feet MSL.
Magnetic variation is 1.7000° East
View others Airports in North Rhine-Westphalia

Operational data

Special qualification required
Current time UTC:
Current local time:
Weather
METAR: EDLW 231720Z 18010KT CAVOK 07/02 Q0994
TAF: TAF EDLW 231700Z 2318/2418 18009KT 9999 BKN020 PROB30 TEMPO 2406/2408 20014KT 4000 SHRAGS BKN014CB BECMG 2409/2412 20014KT PROB30 TEMPO 2410/2413 20015G25KT 4000 SHRAGS BKN014CB BECMG 2415/2418 18009KT
View NOTAMs / SUP AIP / TFR affecting this airport [VIEW]
Communications frequencies: [VIEW]

Runways:

RWY identifierQFULength (ft)Width (ft)SurfaceLDA (ft)
0661°6562148ASPH5577
24241°6562148ASPH5577

Airport contact information

Address: Dortmund Germany

Handlers

Flughafen Dortmund Gmbh

Flughafen Dortmund Gmbh

Satellite view of EDLW